createdAt,value
2022-10-21T00:00:30.277Z,3.17
2022-10-21T00:03:33.483Z,3.40
2022-10-21T00:06:36.661Z,3.20
2022-10-21T00:09:40.016Z,3.50
2022-10-21T00:12:43.181Z,3.67
2022-10-21T00:15:58.086Z,3.90
2022-10-21T00:19:01.292Z,3.60
2022-10-21T00:22:04.400Z,3.17
2022-10-21T00:25:08.268Z,3.70
2022-10-21T00:28:11.327Z,3.27
2022-10-21T00:31:17.360Z,3.80
2022-10-21T00:34:20.409Z,3.67
2022-10-21T00:37:23.486Z,3.60
2022-10-21T00:40:26.630Z,3.33
2022-10-21T00:43:30.396Z,4.40
2022-10-21T00:46:41.397Z,4.37
2022-10-21T00:49:50.948Z,4.20
2022-10-21T00:52:56.108Z,3.97
2022-10-21T00:56:03.025Z,3.53
2022-10-21T00:59:07.688Z,3.53
2022-10-21T01:02:12.315Z,4.57
2022-10-21T01:05:17.332Z,4.20
2022-10-21T01:08:21.482Z,3.63
2022-10-21T01:11:27.154Z,3.53
2022-10-21T01:14:43.615Z,4.00
2022-10-21T01:17:54.686Z,4.07
2022-10-21T01:21:16.913Z,3.83
2022-10-21T01:24:53.191Z,4.17
2022-10-21T01:28:08.045Z,4.17
2022-10-21T01:31:19.373Z,3.97
2022-10-21T01:34:28.330Z,3.73
2022-10-21T01:37:42.880Z,4.07
2022-10-21T01:40:56.021Z,4.13
2022-10-21T01:44:08.330Z,4.10
2022-10-21T01:47:19.102Z,3.90
2022-10-21T01:50:26.496Z,3.70
2022-10-21T01:53:32.736Z,4.00
2022-10-21T01:56:37.781Z,4.43
2022-10-21T01:59:43.944Z,4.37
2022-10-21T02:02:50.948Z,4.20
2022-10-21T02:05:54.441Z,4.13
2022-10-21T02:08:57.816Z,3.77
2022-10-21T02:12:03.268Z,4.33
2022-10-21T02:15:10.569Z,3.93
2022-10-21T02:18:22.572Z,4.07
2022-10-21T02:21:29.495Z,4.80
2022-10-21T02:24:40.124Z,4.40
2022-10-21T02:27:43.549Z,3.77
2022-10-21T02:30:52.815Z,4.33
2022-10-21T02:34:06.086Z,4.27
2022-10-21T02:37:22.887Z,4.70
2022-10-21T02:40:33.238Z,5.33
2022-10-21T02:43:39.955Z,4.73
2022-10-21T02:46:44.934Z,5.00
2022-10-21T02:49:49.608Z,4.50
2022-10-21T02:52:52.885Z,4.33
2022-10-21T02:55:56.130Z,5.20
2022-10-21T02:58:59.363Z,4.53
2022-10-21T03:02:02.634Z,4.67
2022-10-21T03:05:09.232Z,5.13
2022-10-21T03:08:12.402Z,5.10
2022-10-21T03:11:15.583Z,4.50
2022-10-21T03:14:18.818Z,3.97
2022-10-21T03:17:25.125Z,4.17
2022-10-21T03:20:30.155Z,4.67
2022-10-21T03:23:33.298Z,4.77
2022-10-21T03:26:36.538Z,4.20
2022-10-21T03:29:39.771Z,4.37
2022-10-21T03:32:42.976Z,4.97
2022-10-21T03:35:47.526Z,4.97
2022-10-21T03:38:50.737Z,4.50
2022-10-21T03:41:54.032Z,5.30
2022-10-21T03:44:57.175Z,4.63
2022-10-21T03:48:00.415Z,4.97
2022-10-21T03:51:05.221Z,4.23
2022-10-21T03:54:08.417Z,4.63
2022-10-21T03:57:11.742Z,5.10
2022-10-21T04:00:15.550Z,5.70
2022-10-21T04:03:18.776Z,6.10
2022-10-21T04:06:23.446Z,5.77
2022-10-21T04:09:26.901Z,6.33
2022-10-21T04:12:30.184Z,6.20
2022-10-21T04:15:33.321Z,6.33
2022-10-21T04:18:36.517Z,8.00
2022-10-21T04:21:41.051Z,7.13
2022-10-21T04:24:44.271Z,7.23
2022-10-21T04:27:47.461Z,7.27
2022-10-21T04:30:50.936Z,6.60
2022-10-21T04:33:54.185Z,7.47
2022-10-21T04:37:01.140Z,6.70
2022-10-21T04:40:09.140Z,6.93
2022-10-21T04:43:12.384Z,7.10
2022-10-21T04:46:17.128Z,7.00
2022-10-21T04:49:20.561Z,6.77
2022-10-21T04:52:25.203Z,6.27
2022-10-21T04:55:28.379Z,6.20
2022-10-21T04:58:31.568Z,7.30
2022-10-21T05:01:34.906Z,6.47
2022-10-21T05:04:38.162Z,6.70
2022-10-21T05:07:42.725Z,7.07
2022-10-21T05:10:45.967Z,7.43
2022-10-21T05:13:49.114Z,7.03
2022-10-21T05:16:52.317Z,7.87
2022-10-21T05:19:55.529Z,7.20
2022-10-21T05:23:00.145Z,7.90
2022-10-21T05:26:03.345Z,8.07
2022-10-21T05:29:06.577Z,8.67
2022-10-21T05:32:09.782Z,8.67
2022-10-21T05:35:13.255Z,8.53
2022-10-21T05:38:17.779Z,8.20
2022-10-21T05:41:21.085Z,8.87
2022-10-21T05:44:24.411Z,7.93
2022-10-21T05:47:27.615Z,9.00
2022-10-21T05:50:30.787Z,8.90
2022-10-21T05:53:35.608Z,8.43
2022-10-21T05:56:38.849Z,8.77
2022-10-21T05:59:42.106Z,5.93
2022-10-21T06:02:45.488Z,6.37
2022-10-21T06:05:48.706Z,6.37
2022-10-21T06:08:53.320Z,6.77
2022-10-21T06:11:57.892Z,7.23
2022-10-21T06:15:01.098Z,7.20
2022-10-21T06:18:04.390Z,8.30
2022-10-21T06:21:08.268Z,10.10
2022-10-21T06:24:12.935Z,9.67
2022-10-21T06:27:16.138Z,12.40
2022-10-21T06:30:19.389Z,12.17
2022-10-21T06:33:26.231Z,11.40
2022-10-21T06:36:30.590Z,11.07
2022-10-21T06:39:35.303Z,12.77
2022-10-21T06:42:40.387Z,11.67
2022-10-21T06:45:43.757Z,12.67
2022-10-21T06:48:46.975Z,12.53
2022-10-21T06:51:50.155Z,13.23
2022-10-21T06:54:54.730Z,15.83
2022-10-21T06:57:57.983Z,18.47
2022-10-21T07:01:01.145Z,15.83
2022-10-21T07:04:06.144Z,14.57
2022-10-21T07:07:09.363Z,14.37
2022-10-21T07:10:13.925Z,13.50
2022-10-21T07:13:17.146Z,14.23
2022-10-21T07:16:23.870Z,13.80
2022-10-21T07:19:27.449Z,14.97
2022-10-21T07:22:31.954Z,15.50
2022-10-21T07:25:37.700Z,15.00
2022-10-21T07:28:42.083Z,15.97
2022-10-21T07:31:45.771Z,15.67
2022-10-21T07:34:49.033Z,15.57
2022-10-21T07:37:52.342Z,17.03
2022-10-21T07:40:58.194Z,16.13
2022-10-21T07:44:01.837Z,16.70
2022-10-21T07:47:05.107Z,14.50
2022-10-21T07:50:09.251Z,11.37
2022-10-21T07:53:13.250Z,11.63
2022-10-21T07:56:20.906Z,11.70
2022-10-21T07:59:24.516Z,12.27
2022-10-21T08:02:31.426Z,11.33
2022-10-21T08:05:34.645Z,11.83
2022-10-21T08:08:38.993Z,9.97
2022-10-21T08:11:44.043Z,8.93
2022-10-21T08:14:47.261Z,9.63
2022-10-21T08:17:50.492Z,9.43
2022-10-21T08:20:53.987Z,9.63
2022-10-21T08:23:57.179Z,10.87
2022-10-21T08:27:01.808Z,9.90
2022-10-21T08:30:05.629Z,9.13
2022-10-21T08:33:08.816Z,10.07
2022-10-21T08:36:15.482Z,10.47
2022-10-21T08:39:18.705Z,10.87
2022-10-21T08:42:23.788Z,9.50
2022-10-21T08:45:34.755Z,9.47
2022-10-21T08:48:43.917Z,9.77
2022-10-21T08:51:55.227Z,9.77
2022-10-21T08:55:01.210Z,10.30
2022-10-21T08:58:06.108Z,9.77
2022-10-21T09:01:24.424Z,9.40
2022-10-21T09:04:42.843Z,9.40
2022-10-21T09:07:52.520Z,10.30
2022-10-21T09:11:02.615Z,11.30
2022-10-21T09:14:50.141Z,10.60
2022-10-21T09:18:12.395Z,10.40
2022-10-21T09:21:24.142Z,10.37
2022-10-21T09:24:35.126Z,10.33
2022-10-21T09:27:54.994Z,11.13
2022-10-21T09:31:03.761Z,11.33
2022-10-21T09:34:19.464Z,11.17
2022-10-21T09:37:31.750Z,11.10
2022-10-21T09:40:37.986Z,11.10
2022-10-21T09:43:41.219Z,11.60
2022-10-21T09:46:46.355Z,11.60
2022-10-21T09:50:06.813Z,11.07
2022-10-21T09:53:16.406Z,11.43
2022-10-21T09:56:22.447Z,11.67
2022-10-21T09:59:30.428Z,11.57
2022-10-21T10:02:39.217Z,13.00
2022-10-21T10:05:48.134Z,12.00
2022-10-21T10:08:51.637Z,11.40
2022-10-21T10:11:57.924Z,12.00
2022-10-21T10:15:30.827Z,12.63
2022-10-21T10:18:38.357Z,12.60
2022-10-21T10:21:43.442Z,12.00
2022-10-21T10:24:47.086Z,11.50
2022-10-21T10:27:53.445Z,11.50
2022-10-21T10:30:58.702Z,11.52
2022-10-21T10:34:05.403Z,11.80
2022-10-21T10:37:21.338Z,12.27
2022-10-21T10:40:32.839Z,12.75
2022-10-21T10:43:45.320Z,12.48
2022-10-21T10:46:57.929Z,12.27
2022-10-21T10:50:01.604Z,12.65
2022-10-21T10:53:35.026Z,12.07
2022-10-21T10:56:48.069Z,12.82
2022-10-21T10:59:59.471Z,12.48
2022-10-21T11:03:06.476Z,12.32
2022-10-21T11:06:16.930Z,12.50
2022-10-21T11:09:25.108Z,13.20
2022-10-21T11:12:30.336Z,12.50
2022-10-21T11:16:12.561Z,11.57
2022-10-21T11:19:28.258Z,12.30
2022-10-21T11:22:46.829Z,12.50
2022-10-21T11:26:08.040Z,11.87
2022-10-21T11:29:26.807Z,11.98
2022-10-21T11:32:42.488Z,12.25
2022-10-21T11:36:02.284Z,9.38
2022-10-21T11:39:59.429Z,10.82
2022-10-21T11:43:29.582Z,11.10
2022-10-21T11:46:50.059Z,11.35
2022-10-21T11:50:02.745Z,11.07
2022-10-21T11:53:35.436Z,9.80
2022-10-21T11:56:54.908Z,10.75
2022-10-21T12:00:37.797Z,10.20
2022-10-21T12:04:10.869Z,9.90
2022-10-21T12:08:04.416Z,10.47
2022-10-21T12:11:39.263Z,10.10
2022-10-21T12:14:56.673Z,10.40
2022-10-21T12:18:09.231Z,10.63
2022-10-21T12:21:40.093Z,8.88
2022-10-21T12:24:52.491Z,9.68
2022-10-21T12:28:05.799Z,10.00
2022-10-21T12:31:24.480Z,11.97
2022-10-21T12:34:34.113Z,11.95
2022-10-21T12:38:12.282Z,11.90
2022-10-21T12:41:36.536Z,11.95
2022-10-21T12:44:42.301Z,11.73
2022-10-21T12:47:47.232Z,12.25
2022-10-21T12:51:00.150Z,11.77
2022-10-21T12:54:15.610Z,12.70
2022-10-21T12:57:38.220Z,11.55
2022-10-21T13:00:58.793Z,13.68
2022-10-21T13:04:02.826Z,12.18
2022-10-21T13:07:37.638Z,12.60
2022-10-21T13:10:41.571Z,11.75
2022-10-21T13:13:50.353Z,12.57
2022-10-21T13:16:57.351Z,12.77
2022-10-21T13:20:49.328Z,12.00
2022-10-21T13:24:18.401Z,13.15
2022-10-21T13:27:29.081Z,13.90
2022-10-21T13:30:42.277Z,13.77
2022-10-21T13:33:57.614Z,15.52
2022-10-21T13:37:23.486Z,14.38
2022-10-21T13:40:38.926Z,14.13
2022-10-21T13:43:58.325Z,14.25
2022-10-21T13:47:34.842Z,14.45
2022-10-21T13:50:51.011Z,14.07
2022-10-21T13:54:04.352Z,13.57
2022-10-21T13:57:18.258Z,13.63
2022-10-21T14:00:32.425Z,12.43
2022-10-21T14:03:36.606Z,12.00
2022-10-21T14:06:59.126Z,12.07
2022-10-21T14:10:08.546Z,11.40
2022-10-21T14:13:30.326Z,12.30
2022-10-21T14:16:44.674Z,11.33
2022-10-21T14:19:54.786Z,11.13
2022-10-21T14:22:58.741Z,9.77
2022-10-21T14:26:09.247Z,10.80
2022-10-21T14:29:27.348Z,11.27
2022-10-21T14:32:33.157Z,10.20
2022-10-21T14:35:41.903Z,10.03
2022-10-21T14:38:54.026Z,11.00
2022-10-21T14:42:02.828Z,11.47
2022-10-21T14:45:09.330Z,10.20
2022-10-21T14:48:26.590Z,9.90
2022-10-21T14:51:36.642Z,9.83
2022-10-21T14:54:52.073Z,9.40
2022-10-21T14:58:08.087Z,9.10
2022-10-21T15:01:19.379Z,8.23
2022-10-21T15:04:52.408Z,8.17
2022-10-21T15:08:32.745Z,8.63
2022-10-21T15:11:41.976Z,7.27
2022-10-21T15:14:45.573Z,7.40
2022-10-21T15:17:50.505Z,8.03
2022-10-21T15:20:57.349Z,7.27
2022-10-21T15:24:04.653Z,7.83
2022-10-21T15:27:08.533Z,7.40
2022-10-21T15:30:18.906Z,6.93
2022-10-21T15:33:26.422Z,8.53
2022-10-21T15:36:29.817Z,8.00
2022-10-21T15:39:33.154Z,7.10
2022-10-21T15:42:37.097Z,74.07
2022-10-21T15:45:42.181Z,23.33
2022-10-21T15:48:46.794Z,11.30
2022-10-21T15:51:51.026Z,12.87
2022-10-21T15:54:55.373Z,14.17
2022-10-21T15:57:58.651Z,15.87
2022-10-21T16:01:01.926Z,10.30
2022-10-21T16:04:06.832Z,14.27
2022-10-21T16:07:20.907Z,14.10
2022-10-21T16:10:26.515Z,11.30
2022-10-21T16:13:29.697Z,10.20
2022-10-21T16:16:32.991Z,10.37
2022-10-21T16:19:37.720Z,10.97
2022-10-21T16:22:41.312Z,10.00
2022-10-21T16:25:48.294Z,9.63
2022-10-21T16:28:52.774Z,10.20
2022-10-21T16:31:56.107Z,11.17
2022-10-21T16:35:00.702Z,10.90
2022-10-21T16:38:04.025Z,12.37
2022-10-21T16:41:11.747Z,11.73
2022-10-21T16:44:15.416Z,12.00
2022-10-21T16:47:20.945Z,12.57
2022-10-21T16:50:31.372Z,11.63
2022-10-21T16:53:34.665Z,12.67
2022-10-21T16:56:37.912Z,11.60
2022-10-21T16:59:41.168Z,11.67
2022-10-21T17:02:47.005Z,12.40
2022-10-21T17:05:52.559Z,12.43
2022-10-21T17:08:58.097Z,11.70
2022-10-21T17:12:01.520Z,11.60
2022-10-21T17:15:05.972Z,12.97
2022-10-21T17:18:11.821Z,13.07
2022-10-21T17:21:22.562Z,13.40
2022-10-21T17:24:25.990Z,12.53
2022-10-21T17:27:29.241Z,12.23
2022-10-21T17:30:32.644Z,12.23
2022-10-21T17:33:35.885Z,11.60
2022-10-21T17:36:40.617Z,11.93
2022-10-21T17:39:44.575Z,12.27
2022-10-21T17:42:48.192Z,11.87
2022-10-21T17:45:51.702Z,12.70
2022-10-21T17:48:56.093Z,12.40
2022-10-21T17:52:00.699Z,14.03
2022-10-21T17:55:04.982Z,13.27
2022-10-21T17:58:08.096Z,13.63
2022-10-21T18:01:13.378Z,13.17
2022-10-21T18:04:16.643Z,13.03
2022-10-21T18:07:21.217Z,12.60
2022-10-21T18:10:24.490Z,12.60
2022-10-21T18:13:30.648Z,12.20
2022-10-21T18:16:34.973Z,11.87
2022-10-21T18:19:38.204Z,12.33
2022-10-21T18:22:43.129Z,12.00
2022-10-21T18:25:46.404Z,12.10
2022-10-21T18:28:50.620Z,11.80
2022-10-21T18:31:53.842Z,11.00
2022-10-21T18:35:00.152Z,12.50
2022-10-21T18:38:06.490Z,10.50
2022-10-21T18:41:19.913Z,10.40
2022-10-21T18:44:23.962Z,11.63
2022-10-21T18:47:28.178Z,12.17
2022-10-21T18:50:31.482Z,16.63
2022-10-21T18:53:42.460Z,16.43
2022-10-21T18:56:45.704Z,17.53
2022-10-21T18:59:48.890Z,18.40
2022-10-21T19:02:52.118Z,20.03
2022-10-21T19:05:55.381Z,19.03
2022-10-21T19:09:01.309Z,18.30
2022-10-21T19:12:04.962Z,18.87
2022-10-21T19:15:09.044Z,19.00
2022-10-21T19:18:13.646Z,19.60
2022-10-21T19:21:18.987Z,18.07
2022-10-21T19:24:23.570Z,20.23
2022-10-21T19:27:26.792Z,19.53
2022-10-21T19:30:32.277Z,19.70
2022-10-21T19:33:35.521Z,21.73
2022-10-21T19:36:38.714Z,22.50
2022-10-21T19:39:43.262Z,22.97
2022-10-21T19:42:46.447Z,20.63
2022-10-21T19:45:50.365Z,19.10
2022-10-21T19:48:53.644Z,18.13
2022-10-21T19:51:56.863Z,15.50
2022-10-21T19:55:01.531Z,15.57
2022-10-21T19:58:04.710Z,14.77
2022-10-21T20:01:10.326Z,14.50
2022-10-21T20:04:13.542Z,13.60
2022-10-21T20:07:16.765Z,13.53
2022-10-21T20:10:21.838Z,13.60
2022-10-21T20:13:25.113Z,13.07
2022-10-21T20:16:30.203Z,11.80
2022-10-21T20:19:33.403Z,11.57
2022-10-21T20:22:36.656Z,10.77
2022-10-21T20:25:47.807Z,11.07
2022-10-21T20:28:51.938Z,10.00
2022-10-21T20:31:55.187Z,10.30
2022-10-21T20:34:58.497Z,10.47
2022-10-21T20:38:01.654Z,10.47
2022-10-21T20:41:09.654Z,10.77
2022-10-21T20:44:16.218Z,10.47
2022-10-21T20:47:19.442Z,10.30
2022-10-21T20:50:22.851Z,10.87
2022-10-21T20:53:31.022Z,10.37
2022-10-21T20:56:38.239Z,10.07
2022-10-21T20:59:41.468Z,10.73
2022-10-21T21:02:44.687Z,11.47
2022-10-21T21:05:47.871Z,11.53
2022-10-21T21:09:08.615Z,12.27
2022-10-21T21:12:15.740Z,13.07
2022-10-21T21:15:18.919Z,13.27
2022-10-21T21:18:22.129Z,13.87
2022-10-21T21:21:27.829Z,13.97
2022-10-21T21:24:30.995Z,14.57
2022-10-21T21:27:35.660Z,13.73
2022-10-21T21:30:38.868Z,15.23
2022-10-21T21:33:45.218Z,15.80
2022-10-21T21:36:48.545Z,16.60
2022-10-21T21:39:51.858Z,16.40
2022-10-21T21:42:56.435Z,17.07
2022-10-21T21:45:59.655Z,16.67
2022-10-21T21:49:06.123Z,17.03
2022-10-21T21:52:09.634Z,17.47
2022-10-21T21:55:12.913Z,17.83
2022-10-21T21:58:17.535Z,17.93
2022-10-21T22:01:22.508Z,18.47
2022-10-21T22:04:25.738Z,18.90
2022-10-21T22:07:28.919Z,19.77
2022-10-21T22:10:32.235Z,19.73
2022-10-21T22:13:37.399Z,20.03
2022-10-21T22:16:40.682Z,19.83
2022-10-21T22:19:43.839Z,20.30
2022-10-21T22:22:47.142Z,18.93
2022-10-21T22:25:50.668Z,18.77
2022-10-21T22:28:55.297Z,17.93
2022-10-21T22:31:58.555Z,18.40
2022-10-21T22:35:01.683Z,18.43
2022-10-21T22:38:04.866Z,18.13
2022-10-21T22:41:12.202Z,17.33
2022-10-21T22:44:17.138Z,16.43
2022-10-21T22:47:23.430Z,17.30
2022-10-21T22:50:26.666Z,15.87
2022-10-21T22:53:29.863Z,16.27
2022-10-21T22:56:33.250Z,15.70
2022-10-21T22:59:38.119Z,14.53
2022-10-21T23:02:41.480Z,15.13
2022-10-21T23:05:45.369Z,15.50
2022-10-21T23:08:48.522Z,16.43
2022-10-21T23:11:51.734Z,16.13
2022-10-21T23:14:56.426Z,16.83
2022-10-21T23:17:59.631Z,16.60
2022-10-21T23:21:02.881Z,16.83
2022-10-21T23:24:07.218Z,16.63
2022-10-21T23:27:10.438Z,17.17
2022-10-21T23:30:15.292Z,16.27
2022-10-21T23:33:18.477Z,16.70
2022-10-21T23:36:21.616Z,16.53
2022-10-21T23:39:24.886Z,16.73
2022-10-21T23:42:28.147Z,16.23
2022-10-21T23:45:32.707Z,16.07
2022-10-21T23:48:35.934Z,16.50
2022-10-21T23:51:39.111Z,17.87
2022-10-21T23:54:42.417Z,17.77
2022-10-21T23:57:45.992Z,17.03
